Guenther Schulte — VRGK8 — position and weather

sailwx.info

Track history (hours):
 
Tides and Currents Weather Stations Pressure Air Temp Water Temp Dewpoint Dewpoint Depression Visibility Wind Speed Wind Dir Waves Ship Positions

Guenther Schulte

Last reported at 2016-Dec-05 10:33 UTC. Time now 2016-Dec-10 03:12 UTC.
Position S 36°18' E 174°57'.

Length 231 m; draft 11.4 m.

Type: Ship (hazmat cat C). MMSI: 477728800.

Date/timePositionNaut miles runAvg speedWind from/ knotsBaromVisibWave heightAir tempDewpointWater temp
2016-Dec-05 10:33S 36°18' E 174°57'1010.2
2016-Dec-05 09:33S 36°28' E 174°60'10 9.7
2016-Dec-05 08:33S 36°37' E 174°57'1010.1
2016-Dec-05 07:33S 36°45' E 174°50'6 0.4
2016-Dec-04 17:19S 36°51' E 174°47'3 3.9
2016-Dec-04 16:34S 36°48' E 174°49'7 7.1
2016-Dec-04 15:33S 36°42' E 174°53'8 8.1
2016-Dec-04 14:34S 36°35' E 174°58'10 9.7
2016-Dec-04 13:34S 36°29' E 175°08'  
Track history (hours):
 
Tides and Currents Weather Stations Pressure Air Temp Water Temp Dewpoint Dewpoint Depression Visibility Wind Speed Wind Dir Waves Ship Positions

Guenther Schulte

Last reported at 2016-Dec-05 10:33 UTC. Time now 2016-Dec-10 03:12 UTC.
Position S 36°18' E 174°57'.

Length 231 m; draft 11.4 m.

Type: Ship (hazmat cat C). MMSI: 477728800.

Date/timePositionNaut miles runAvg speedWind from/ knotsBaromVisibWave heightAir tempDewpointWater temp
2016-Dec-05 10:33S 36°18' E 174°57'1010.2
2016-Dec-05 09:33S 36°28' E 174°60'10 9.7
2016-Dec-05 08:33S 36°37' E 174°57'1010.1
2016-Dec-05 07:33S 36°45' E 174°50'6 0.4
2016-Dec-04 17:19S 36°51' E 174°47'3 3.9
2016-Dec-04 16:34S 36°48' E 174°49'7 7.1
2016-Dec-04 15:33S 36°42' E 174°53'8 8.1
2016-Dec-04 14:34S 36°35' E 174°58'10 9.7
2016-Dec-04 13:34S 36°29' E 175°08'  

Dump ship's entire track history